sensor_id;sensor_type;location;lat;lon;timestamp;pressure;altitude;pressure_sealevel;temperature;humidity
16030;BME280;34770;49.272;11.070;2023-07-22T00:11:50;97504.78;;;13.29;78.39
16030;BME280;34770;49.272;11.070;2023-07-22T00:14:16;97522.28;;;13.53;79.11
16030;BME280;34770;49.272;11.070;2023-07-22T00:24:27;97636.13;;;13.83;79.58
16030;BME280;34770;49.272;11.070;2023-07-22T00:26:53;97564.97;;;13.26;80.30
16030;BME280;34770;49.272;11.070;2023-07-22T00:29:18;97620.47;;;13.59;80.82
16030;BME280;34770;49.272;11.070;2023-07-22T00:31:44;97639.13;;;13.72;80.37
16030;BME280;34770;49.272;11.070;2023-07-22T00:34:10;97548.91;;;13.15;80.10
16030;BME280;34770;49.272;11.070;2023-07-22T00:36:35;97630.09;;;13.71;79.82
16030;BME280;34770;49.272;11.070;2023-07-22T00:39:06;97523.53;;;12.97;79.62
16030;BME280;34770;49.272;11.070;2023-07-22T00:41:31;97582.81;;;13.47;79.94
16030;BME280;34770;49.272;11.070;2023-07-22T00:43:57;97516.50;;;12.87;79.92
16030;BME280;34770;49.272;11.070;2023-07-22T00:46:23;97562.34;;;12.99;80.44
16030;BME280;34770;49.272;11.070;2023-07-22T00:48:52;97535.38;;;12.88;80.86
16030;BME280;34770;49.272;11.070;2023-07-22T00:51:18;97635.22;;;13.49;80.65
16030;BME280;34770;49.272;11.070;2023-07-22T00:53:45;97569.84;;;13.05;80.65
16030;BME280;34770;49.272;11.070;2023-07-22T00:56:10;97559.22;;;12.94;81.00
16030;BME280;34770;49.272;11.070;2023-07-22T00:58:37;97553.63;;;12.96;80.72
16030;BME280;34770;49.272;11.070;2023-07-22T01:01:02;97632.25;;;13.42;80.72
16030;BME280;34770;49.272;11.070;2023-07-22T01:03:28;97529.97;;;12.70;80.43
16030;BME280;34770;49.272;11.070;2023-07-22T01:05:54;97535.16;;;12.82;81.06
16030;BME280;34770;49.272;11.070;2023-07-22T01:08:20;97537.88;;;12.82;80.66
16030;BME280;34770;49.272;11.070;2023-07-22T01:10:46;97507.53;;;12.68;80.77
16030;BME280;34770;49.272;11.070;2023-07-22T01:13:12;97576.06;;;12.98;80.25
16030;BME280;34770;49.272;11.070;2023-07-22T01:15:38;97528.72;;;12.83;80.82
16030;BME280;34770;49.272;11.070;2023-07-22T01:18:04;97545.31;;;12.97;80.07
16030;BME280;34770;49.272;11.070;2023-07-22T01:20:32;97529.78;;;12.90;79.89
16030;BME280;34770;49.272;11.070;2023-07-22T01:22:58;97514.09;;;12.84;79.36
16030;BME280;34770;49.272;11.070;2023-07-22T01:25:24;97524.19;;;12.91;79.40
16030;BME280;34770;49.272;11.070;2023-07-22T01:27:52;97541.03;;;13.12;79.43
16030;BME280;34770;49.272;11.070;2023-07-22T01:30:19;97503.47;;;12.72;79.00
16030;BME280;34770;49.272;11.070;2023-07-22T01:32:47;97563.50;;;12.97;79.75
16030;BME280;34770;49.272;11.070;2023-07-22T01:35:13;97549.13;;;12.69;80.15
16030;BME280;34770;49.272;11.070;2023-07-22T01:37:39;97566.78;;;12.83;80.72
16030;BME280;34770;49.272;11.070;2023-07-22T01:40:05;97496.25;;;12.28;80.64
16030;BME280;34770;49.272;11.070;2023-07-22T01:42:41;97507.06;;;12.38;80.82
16030;BME280;34770;49.272;11.070;2023-07-22T01:45:08;97599.69;;;12.97;80.87
16030;BME280;34770;49.272;11.070;2023-07-22T01:47:38;97571.34;;;12.82;81.09
16030;BME280;34770;49.272;11.070;2023-07-22T01:50:05;97601.25;;;13.00;80.82
16030;BME280;34770;49.272;11.070;2023-07-22T01:52:35;97504.78;;;12.33;80.85
16030;BME280;34770;49.272;11.070;2023-07-22T01:55:01;97600.25;;;13.01;80.86
16030;BME280;34770;49.272;11.070;2023-07-22T01:57:32;97597.38;;;13.02;80.89
16030;BME280;34770;49.272;11.070;2023-07-22T02:00:00;97514.25;;;12.64;80.65
16030;BME280;34770;49.272;11.070;2023-07-22T02:02:26;97501.59;;;12.55;79.83
16030;BME280;34770;49.272;11.070;2023-07-22T02:04:52;97519.53;;;12.66;78.99
16030;BME280;34770;49.272;11.070;2023-07-22T02:07:18;97594.19;;;13.07;78.67
16030;BME280;34770;49.272;11.070;2023-07-22T02:09:43;97529.97;;;12.70;78.99
16030;BME280;34770;49.272;11.070;2023-07-22T02:12:11;97602.63;;;13.13;78.45
16030;BME280;34770;49.272;11.070;2023-07-22T02:14:37;97537.66;;;12.57;78.55
16030;BME280;34770;49.272;11.070;2023-07-22T02:17:03;97530.63;;;12.55;78.65
16030;BME280;34770;49.272;11.070;2023-07-22T02:19:31;97514.72;;;12.42;78.96
16030;BME280;34770;49.272;11.070;2023-07-22T02:21:57;97610.19;;;12.74;78.75
16030;BME280;34770;49.272;11.070;2023-07-22T02:24:23;97608.72;;;12.62;79.95
16030;BME280;34770;49.272;11.070;2023-07-22T02:26:49;97530.63;;;12.19;79.93
16030;BME280;34770;49.272;11.070;2023-07-22T02:29:15;97529.47;;;12.22;79.20
16030;BME280;34770;49.272;11.070;2023-07-22T02:31:41;97610.50;;;12.89;79.26
16030;BME280;34770;49.272;11.070;2023-07-22T02:34:06;97585.94;;;12.63;78.40
16030;BME280;34770;49.272;11.070;2023-07-22T02:36:32;97512.91;;;12.15;78.77
16030;BME280;34770;49.272;11.070;2023-07-22T02:38:57;97505.78;;;12.14;78.15
16030;BME280;34770;49.272;11.070;2023-07-22T02:41:23;97493.13;;;12.05;77.92
16030;BME280;34770;49.272;11.070;2023-07-22T02:43:49;97595.34;;;12.69;78.14
16030;BME280;34770;49.272;11.070;2023-07-22T02:46:15;97531.72;;;12.27;77.45
16030;BME280;34770;49.272;11.070;2023-07-22T02:48:40;97505.91;;;12.13;77.47
16030;BME280;34770;49.272;11.070;2023-07-22T02:51:09;97546.41;;;12.34;77.31
16030;BME280;34770;49.272;11.070;2023-07-22T02:53:38;97559.63;;;12.19;77.86
16030;BME280;34770;49.272;11.070;2023-07-22T02:56:05;97623.00;;;12.64;77.98
16030;BME280;34770;49.272;11.070;2023-07-22T02:58:32;97524.06;;;11.95;77.22
16030;BME280;34770;49.272;11.070;2023-07-22T03:00:58;97567.88;;;12.27;77.33
16030;BME280;34770;49.272;11.070;2023-07-22T03:03:25;97529.91;;;11.90;77.49
16030;BME280;34770;49.272;11.070;2023-07-22T03:05:51;97579.50;;;12.19;78.10
16030;BME280;34770;49.272;11.070;2023-07-22T03:08:22;97561.03;;;11.96;78.26
16030;BME280;34770;49.272;11.070;2023-07-22T03:10:47;97640.59;;;12.43;78.70
16030;BME280;34770;49.272;11.070;2023-07-22T03:13:15;97499.28;;;11.43;78.87
16030;BME280;34770;49.272;11.070;2023-07-22T03:15:43;97517.28;;;11.44;79.37
16030;BME280;34770;49.272;11.070;2023-07-22T03:18:10;97515.66;;;11.51;78.78
16030;BME280;34770;49.272;11.070;2023-07-22T03:20:39;97520.28;;;11.41;79.23
16030;BME280;34770;49.272;11.070;2023-07-22T03:23:05;97633.44;;;12.14;79.86
16030;BME280;34770;49.272;11.070;2023-07-22T03:25:32;97532.69;;;11.44;79.85
16030;BME280;34770;49.272;11.070;2023-07-22T03:28:02;97570.16;;;11.77;79.49
16030;BME280;34770;49.272;11.070;2023-07-22T03:30:28;97574.59;;;11.78;78.83
16030;BME280;34770;49.272;11.070;2023-07-22T03:32:54;97538.09;;;11.53;78.83
16030;BME280;34770;49.272;11.070;2023-07-22T03:35:20;97665.47;;;12.38;78.31
16030;BME280;34770;49.272;11.070;2023-07-22T03:37:45;97567.16;;;11.71;78.21
16030;BME280;34770;49.272;11.070;2023-07-22T03:40:11;97575.44;;;11.79;77.78
16030;BME280;34770;49.272;11.070;2023-07-22T03:42:40;97645.25;;;12.23;77.65
16030;BME280;34770;49.272;11.070;2023-07-22T03:45:08;97600.75;;;12.06;77.35
16030;BME280;34770;49.272;11.070;2023-07-22T03:47:39;97565.31;;;11.71;77.16
16030;BME280;34770;49.272;11.070;2023-07-22T03:50:06;97669.16;;;12.47;77.30
16030;BME280;34770;49.272;11.070;2023-07-22T03:52:32;97550.75;;;11.72;77.07
16030;BME280;34770;49.272;11.070;2023-07-22T03:55:00;97617.56;;;12.10;77.35
16030;BME280;34770;49.272;11.070;2023-07-22T03:57:27;97564.59;;;11.79;77.43
16030;BME280;34770;49.272;11.070;2023-07-22T03:59:56;97580.38;;;11.93;77.58
16030;BME280;34770;49.272;11.070;2023-07-22T04:02:25;97595.66;;;11.94;77.58
16030;BME280;34770;49.272;11.070;2023-07-22T04:04:51;97680.84;;;12.57;78.24
16030;BME280;34770;49.272;11.070;2023-07-22T04:07:17;97571.66;;;11.89;78.00
16030;BME280;34770;49.272;11.070;2023-07-22T04:09:43;97599.31;;;12.02;77.59
16030;BME280;34770;49.272;11.070;2023-07-22T04:14:45;97625.13;;;11.89;79.00
16030;BME280;34770;49.272;11.070;2023-07-22T04:17:11;97681.78;;;12.38;79.48
16030;BME280;34770;49.272;11.070;2023-07-22T04:19:37;97565.88;;;11.75;79.33
16030;BME280;34770;49.272;11.070;2023-07-22T04:22:02;97611.00;;;12.12;79.56
16030;BME280;34770;49.272;11.070;2023-07-22T04:24:33;97594.72;;;12.12;79.11
16030;BME280;34770;49.272;11.070;2023-07-22T04:26:58;97591.97;;;11.85;79.21
16030;BME280;34770;49.272;11.070;2023-07-22T04:29:27;97638.22;;;12.30;79.29
16030;BME280;34770;49.272;11.070;2023-07-22T04:32:00;97576.81;;;11.92;79.17
16030;BME280;34770;49.272;11.070;2023-07-22T04:34:32;97618.97;;;12.24;79.26
16030;BME280;34770;49.272;11.070;2023-07-22T04:36:58;97591.72;;;12.33;79.33
16030;BME280;34770;49.272;11.070;2023-07-22T04:39:24;97598.34;;;12.66;79.12
16030;BME280;34770;49.272;11.070;2023-07-22T04:41:50;97604.50;;;12.86;78.58
16030;BME280;34770;49.272;11.070;2023-07-22T04:44:16;97584.66;;;12.85;77.86
16030;BME280;34770;49.272;11.070;2023-07-22T04:46:42;97612.09;;;13.09;77.51
16030;BME280;34770;49.272;11.070;2023-07-22T04:49:08;97589.47;;;13.09;77.21
16030;BME280;34770;49.272;11.070;2023-07-22T04:51:36;97609.28;;;13.19;77.29
16030;BME280;34770;49.272;11.070;2023-07-22T04:54:02;97687.56;;;13.86;76.94
16030;BME280;34770;49.272;11.070;2023-07-22T04:56:30;97586.09;;;13.32;76.77
16030;BME280;34770;49.272;11.070;2023-07-22T04:58:56;97625.28;;;13.65;76.72
16030;BME280;34770;49.272;11.070;2023-07-22T05:09:07;97669.78;;;14.00;77.40
16030;BME280;34770;49.272;11.070;2023-07-22T05:11:32;97610.81;;;13.65;77.40
16030;BME280;34770;49.272;11.070;2023-07-22T06:08:16;97709.28;;;15.55;72.15
16030;BME280;34770;49.272;11.070;2023-07-22T06:53:31;97757.53;;;17.14;67.77
16030;BME280;34770;49.272;11.070;2023-07-22T06:55:56;97751.06;;;17.38;66.74
16030;BME280;34770;49.272;11.070;2023-07-22T06:58:22;97768.44;;;17.53;65.36
16030;BME280;34770;49.272;11.070;2023-07-22T07:00:53;97772.41;;;17.51;66.38
16030;BME280;34770;49.272;11.070;2023-07-22T07:05:57;97776.25;;;17.72;64.68
16030;BME280;34770;49.272;11.070;2023-07-22T07:08:23;97772.91;;;17.85;63.61
16030;BME280;34770;49.272;11.070;2023-07-22T07:10:55;97771.06;;;18.00;62.86
16030;BME280;34770;49.272;11.070;2023-07-22T07:13:20;97744.78;;;18.06;62.66
16030;BME280;34770;49.272;11.070;2023-07-22T07:15:47;97777.19;;;18.25;62.40
16030;BME280;34770;49.272;11.070;2023-07-22T07:18:14;97774.59;;;18.46;62.50
16030;BME280;34770;49.272;11.070;2023-07-22T07:20:39;97782.72;;;18.62;61.13
16030;BME280;34770;49.272;11.070;2023-07-22T07:23:04;97765.69;;;18.81;60.98
16030;BME280;34770;49.272;11.070;2023-07-22T07:25:30;97771.28;;;19.02;59.77
16030;BME280;34770;49.272;11.070;2023-07-22T07:27:55;97785.34;;;19.29;57.87
16030;BME280;34770;49.272;11.070;2023-07-22T07:30:20;97784.06;;;19.25;57.77
16030;BME280;34770;49.272;11.070;2023-07-22T07:32:46;97783.09;;;19.47;57.28
16030;BME280;34770;49.272;11.070;2023-07-22T07:35:11;97784.72;;;19.56;54.92
16030;BME280;34770;49.272;11.070;2023-07-22T07:37:37;97786.88;;;19.31;57.02
16030;BME280;34770;49.272;11.070;2023-07-22T07:40:02;97789.50;;;19.68;55.87
16030;BME280;34770;49.272;11.070;2023-07-22T07:42:28;97774.75;;;19.76;54.78
16030;BME280;34770;49.272;11.070;2023-07-22T07:44:54;97786.09;;;19.88;54.84
16030;BME280;34770;49.272;11.070;2023-07-22T07:47:19;97780.56;;;19.81;55.23
16030;BME280;34770;49.272;11.070;2023-07-22T07:49:45;97782.03;;;19.98;53.91
16030;BME280;34770;49.272;11.070;2023-07-22T07:52:11;97771.13;;;20.11;52.86
16030;BME280;34770;49.272;11.070;2023-07-22T07:54:36;97779.72;;;20.44;52.46
16030;BME280;34770;49.272;11.070;2023-07-22T07:57:01;97786.78;;;20.81;51.02
16030;BME280;34770;49.272;11.070;2023-07-22T07:59:27;97768.69;;;20.65;50.58
16030;BME280;34770;49.272;11.070;2023-07-22T08:01:52;97780.22;;;20.27;50.59
16030;BME280;34770;49.272;11.070;2023-07-22T08:04:18;97785.78;;;20.18;51.35
16030;BME280;34770;49.272;11.070;2023-07-22T08:06:43;97786.63;;;19.77;52.16
16030;BME280;34770;49.272;11.070;2023-07-22T08:09:10;97785.69;;;20.05;52.50
16030;BME280;34770;49.272;11.070;2023-07-22T08:11:37;97777.56;;;20.40;51.28
16030;BME280;34770;49.272;11.070;2023-07-22T08:14:03;97779.09;;;20.70;49.34
16030;BME280;34770;49.272;11.070;2023-07-22T08:16:28;97785.06;;;20.80;49.17
16030;BME280;34770;49.272;11.070;2023-07-22T08:18:54;97791.41;;;21.02;46.90
16030;BME280;34770;49.272;11.070;2023-07-22T08:21:19;97780.53;;;21.21;46.44
16030;BME280;34770;49.272;11.070;2023-07-22T08:23:45;97788.22;;;21.32;47.93
16030;BME280;34770;49.272;11.070;2023-07-22T08:26:12;97799.00;;;21.27;47.81
16030;BME280;34770;49.272;11.070;2023-07-22T08:28:37;97790.34;;;20.75;47.92
16030;BME280;34770;49.272;11.070;2023-07-22T08:31:03;97760.13;;;20.11;47.12
16030;BME280;34770;49.272;11.070;2023-07-22T08:33:29;97783.06;;;19.97;48.32
16030;BME280;34770;49.272;11.070;2023-07-22T08:35:54;97784.00;;;20.26;50.12
16030;BME280;34770;49.272;11.070;2023-07-22T08:38:20;97791.66;;;20.30;48.80
16030;BME280;34770;49.272;11.070;2023-07-22T08:40:49;97766.94;;;20.15;48.11
16030;BME280;34770;49.272;11.070;2023-07-22T08:43:21;97772.16;;;20.53;47.57
16030;BME280;34770;49.272;11.070;2023-07-22T08:45:49;97762.22;;;21.14;46.55
16030;BME280;34770;49.272;11.070;2023-07-22T08:48:16;97768.19;;;21.58;45.58
16030;BME280;34770;49.272;11.070;2023-07-22T08:50:50;97773.94;;;22.37;44.62
16030;BME280;34770;49.272;11.070;2023-07-22T08:53:18;97756.72;;;22.41;42.77
16030;BME280;34770;49.272;11.070;2023-07-22T08:55:46;97762.06;;;22.76;43.61
16030;BME280;34770;49.272;11.070;2023-07-22T08:58:15;97767.56;;;22.95;43.76
16030;BME280;34770;49.272;11.070;2023-07-22T09:00:42;97768.16;;;23.17;42.93
16030;BME280;34770;49.272;11.070;2023-07-22T09:03:08;97771.53;;;23.32;41.83
16030;BME280;34770;49.272;11.070;2023-07-22T09:05:35;97764.09;;;23.84;41.25
16030;BME280;34770;49.272;11.070;2023-07-22T09:08:02;97766.41;;;23.87;40.06
16030;BME280;34770;49.272;11.070;2023-07-22T09:10:29;97750.03;;;23.85;39.96
16030;BME280;34770;49.272;11.070;2023-07-22T09:12:55;97756.28;;;22.97;40.88
16030;BME280;34770;49.272;11.070;2023-07-22T09:15:21;97737.19;;;22.56;42.26
16030;BME280;34770;49.272;11.070;2023-07-22T09:17:48;97755.66;;;22.95;42.01
16030;BME280;34770;49.272;11.070;2023-07-22T09:20:14;97760.97;;;22.83;42.47
16030;BME280;34770;49.272;11.070;2023-07-22T09:22:47;97749.84;;;23.29;41.78
16030;BME280;34770;49.272;11.070;2023-07-22T09:25:24;97733.22;;;23.42;40.86
16030;BME280;34770;49.272;11.070;2023-07-22T09:27:52;97739.78;;;23.41;41.40
16030;BME280;34770;49.272;11.070;2023-07-22T09:30:33;97738.97;;;23.34;41.18
16030;BME280;34770;49.272;11.070;2023-07-22T09:33:01;97735.38;;;23.78;41.08
16030;BME280;34770;49.272;11.070;2023-07-22T09:35:28;97731.69;;;23.91;40.94
16030;BME280;34770;49.272;11.070;2023-07-22T09:37:54;97732.88;;;23.63;40.76
16030;BME280;34770;49.272;11.070;2023-07-22T09:40:24;97744.25;;;23.49;41.75
16030;BME280;34770;49.272;11.070;2023-07-22T09:42:55;97724.22;;;22.50;42.88
16030;BME280;34770;49.272;11.070;2023-07-22T09:45:25;97729.50;;;22.32;43.39
16030;BME280;34770;49.272;11.070;2023-07-22T09:47:51;97723.34;;;22.23;44.65
16030;BME280;34770;49.272;11.070;2023-07-22T09:50:26;97717.59;;;21.99;43.28
16030;BME280;34770;49.272;11.070;2023-07-22T09:55:23;97726.28;;;21.28;46.05
16030;BME280;34770;49.272;11.070;2023-07-22T09:57:56;97726.81;;;21.65;46.04
16030;BME280;34770;49.272;11.070;2023-07-22T10:00:25;97713.03;;;21.65;45.71
16030;BME280;34770;49.272;11.070;2023-07-22T10:02:51;97711.22;;;21.98;45.72
16030;BME280;34770;49.272;11.070;2023-07-22T10:05:20;97717.81;;;22.04;44.41
16030;BME280;34770;49.272;11.070;2023-07-22T10:07:49;97726.69;;;21.86;45.08
16030;BME280;34770;49.272;11.070;2023-07-22T10:10:17;97707.63;;;21.91;45.14
16030;BME280;34770;49.272;11.070;2023-07-22T10:12:43;97714.22;;;21.97;44.22
16030;BME280;34770;49.272;11.070;2023-07-22T10:15:13;97706.38;;;22.26;44.51
16030;BME280;34770;49.272;11.070;2023-07-22T10:17:40;97715.50;;;22.46;44.10
16030;BME280;34770;49.272;11.070;2023-07-22T10:20:10;97703.59;;;22.52;44.38
16030;BME280;34770;49.272;11.070;2023-07-22T10:22:41;97713.38;;;22.48;44.69
16030;BME280;34770;49.272;11.070;2023-07-22T10:25:07;97714.88;;;22.51;44.25
16030;BME280;34770;49.272;11.070;2023-07-22T10:27:35;97708.72;;;22.42;44.89
16030;BME280;34770;49.272;11.070;2023-07-22T10:30:02;97711.06;;;22.45;47.29
16030;BME280;34770;49.272;11.070;2023-07-22T10:32:49;97708.91;;;22.21;48.36
16030;BME280;34770;49.272;11.070;2023-07-22T10:37:55;97707.00;;;22.15;50.11
16030;BME280;34770;49.272;11.070;2023-07-22T10:43:00;97706.50;;;21.85;44.58
16030;BME280;34770;49.272;11.070;2023-07-22T10:45:32;97704.91;;;22.17;44.16
16030;BME280;34770;49.272;11.070;2023-07-22T10:48:12;97696.38;;;21.99;45.18
16030;BME280;34770;49.272;11.070;2023-07-22T11:14:34;97680.16;;;23.01;41.17
16030;BME280;34770;49.272;11.070;2023-07-22T11:17:02;97678.94;;;22.90;41.22
16030;BME280;34770;49.272;11.070;2023-07-22T11:19:29;97662.81;;;23.32;41.46
16030;BME280;34770;49.272;11.070;2023-07-22T11:21:55;97657.22;;;23.83;41.37
16030;BME280;34770;49.272;11.070;2023-07-22T11:24:22;97672.66;;;23.65;40.80
16030;BME280;34770;49.272;11.070;2023-07-22T11:26:48;97655.50;;;23.50;40.23
16030;BME280;34770;49.272;11.070;2023-07-22T11:29:15;97662.91;;;23.56;40.26
16030;BME280;34770;49.272;11.070;2023-07-22T11:31:43;97663.78;;;23.57;39.30
16030;BME280;34770;49.272;11.070;2023-07-22T11:34:10;97646.50;;;23.93;39.29
16030;BME280;34770;49.272;11.070;2023-07-22T11:36:35;97650.56;;;24.21;38.30
16030;BME280;34770;49.272;11.070;2023-07-22T11:39:06;97652.22;;;25.45;37.27
16030;BME280;34770;49.272;11.070;2023-07-22T11:41:32;97640.63;;;25.96;34.99
16030;BME280;34770;49.272;11.070;2023-07-22T11:43:59;97646.06;;;25.90;35.77
16030;BME280;34770;49.272;11.070;2023-07-22T11:46:28;97633.00;;;25.31;36.77
16030;BME280;34770;49.272;11.070;2023-07-22T11:48:55;97616.78;;;25.76;36.54
16030;BME280;34770;49.272;11.070;2023-07-22T11:51:23;97629.56;;;25.77;35.95
16030;BME280;34770;49.272;11.070;2023-07-22T11:53:53;97622.94;;;24.58;37.11
16030;BME280;34770;49.272;11.070;2023-07-22T11:56:23;97600.72;;;24.21;38.66
16030;BME280;34770;49.272;11.070;2023-07-22T11:58:55;97634.56;;;24.23;38.81
16030;BME280;34770;49.272;11.070;2023-07-22T12:01:22;97625.34;;;23.74;38.62
16030;BME280;34770;49.272;11.070;2023-07-22T12:03:48;97631.78;;;23.67;38.77
16030;BME280;34770;49.272;11.070;2023-07-22T12:06:15;97603.09;;;23.62;39.48
16030;BME280;34770;49.272;11.070;2023-07-22T12:08:48;97610.75;;;24.41;38.71
16030;BME280;34770;49.272;11.070;2023-07-22T12:11:18;97603.28;;;25.50;35.78
16030;BME280;34770;49.272;11.070;2023-07-22T12:13:44;97606.28;;;25.78;35.39
16030;BME280;34770;49.272;11.070;2023-07-22T12:16:12;97607.56;;;25.64;35.51
16030;BME280;34770;49.272;11.070;2023-07-22T12:18:41;97612.00;;;25.95;34.09
16030;BME280;34770;49.272;11.070;2023-07-22T12:21:07;97603.91;;;25.82;35.39
16030;BME280;34770;49.272;11.070;2023-07-22T12:23:33;97606.88;;;25.80;34.83
16030;BME280;34770;49.272;11.070;2023-07-22T12:25:58;97607.22;;;24.95;35.69
16030;BME280;34770;49.272;11.070;2023-07-22T12:28:24;97595.53;;;24.68;36.25
16030;BME280;34770;49.272;11.070;2023-07-22T12:30:49;97594.19;;;24.34;36.00
16030;BME280;34770;49.272;11.070;2023-07-22T12:33:14;97572.94;;;24.03;36.32
16030;BME280;34770;49.272;11.070;2023-07-22T12:35:40;97589.34;;;24.05;36.24
16030;BME280;34770;49.272;11.070;2023-07-22T12:38:05;97577.69;;;23.96;36.65
16030;BME280;34770;49.272;11.070;2023-07-22T12:40:31;97578.22;;;24.11;36.36
16030;BME280;34770;49.272;11.070;2023-07-22T12:42:56;97566.16;;;24.67;36.55
16030;BME280;34770;49.272;11.070;2023-07-22T12:45:22;97569.00;;;25.15;35.41
16030;BME280;34770;49.272;11.070;2023-07-22T12:47:47;97566.03;;;25.99;35.05
16030;BME280;34770;49.272;11.070;2023-07-22T12:50:13;97566.69;;;25.83;33.23
16030;BME280;34770;49.272;11.070;2023-07-22T12:52:39;97538.22;;;25.87;32.96
16030;BME280;34770;49.272;11.070;2023-07-22T12:55:04;97565.03;;;26.05;32.41
16030;BME280;34770;49.272;11.070;2023-07-22T12:57:30;97536.34;;;26.46;32.42
16030;BME280;34770;49.272;11.070;2023-07-22T12:59:55;97548.31;;;26.35;32.16
16030;BME280;34770;49.272;11.070;2023-07-22T13:02:20;97542.69;;;27.21;31.58
16030;BME280;34770;49.272;11.070;2023-07-22T13:04:47;97554.34;;;26.43;31.54
16030;BME280;34770;49.272;11.070;2023-07-22T13:07:13;97516.19;;;26.16;32.68
16030;BME280;34770;49.272;11.070;2023-07-22T13:09:38;97539.22;;;26.16;32.06
16030;BME280;34770;49.272;11.070;2023-07-22T13:12:04;97507.78;;;27.14;30.72
16030;BME280;34770;49.272;11.070;2023-07-22T13:14:30;97534.50;;;25.93;31.86
16030;BME280;34770;49.272;11.070;2023-07-22T13:16:55;97548.38;;;25.82;32.48
16030;BME280;34770;49.272;11.070;2023-07-22T13:19:20;97529.28;;;25.74;30.59
16030;BME280;34770;49.272;11.070;2023-07-22T13:21:46;97537.19;;;26.46;29.88
16030;BME280;34770;49.272;11.070;2023-07-22T13:24:11;97544.66;;;26.69;29.82
16030;BME280;34770;49.272;11.070;2023-07-22T13:26:36;97526.78;;;26.30;29.64
16030;BME280;34770;49.272;11.070;2023-07-22T13:29:02;97528.56;;;25.90;30.74
16030;BME280;34770;49.272;11.070;2023-07-22T13:31:27;97525.19;;;26.11;30.26
16030;BME280;34770;49.272;11.070;2023-07-22T13:33:52;97527.25;;;26.50;30.04
16030;BME280;34770;49.272;11.070;2023-07-22T13:36:18;97523.38;;;26.63;29.85
16030;BME280;34770;49.272;11.070;2023-07-22T13:38:43;97517.25;;;26.26;30.35
16030;BME280;34770;49.272;11.070;2023-07-22T13:41:09;97522.91;;;26.66;30.20
16030;BME280;34770;49.272;11.070;2023-07-22T13:43:34;97520.50;;;26.35;29.70
16030;BME280;34770;49.272;11.070;2023-07-22T13:45:59;97522.91;;;26.66;29.97
16030;BME280;34770;49.272;11.070;2023-07-22T13:48:25;97513.94;;;27.44;28.94
16030;BME280;34770;49.272;11.070;2023-07-22T13:50:50;97498.97;;;27.78;28.62
16030;BME280;34770;49.272;11.070;2023-07-22T13:53:15;97516.47;;;26.89;28.50
16030;BME280;34770;49.272;11.070;2023-07-22T13:55:41;97534.03;;;26.31;29.83
16030;BME280;34770;49.272;11.070;2023-07-22T13:58:06;97521.31;;;25.89;30.63
16030;BME280;34770;49.272;11.070;2023-07-22T14:00:33;97521.13;;;26.25;30.66
16030;BME280;34770;49.272;11.070;2023-07-22T14:02:59;97524.22;;;26.64;30.11
16030;BME280;34770;49.272;11.070;2023-07-22T14:05:24;97518.06;;;26.50;29.69
16030;BME280;34770;49.272;11.070;2023-07-22T14:07:50;97465.47;;;26.83;29.96
16030;BME280;34770;49.272;11.070;2023-07-22T14:10:15;97502.63;;;26.31;28.98
16030;BME280;34770;49.272;11.070;2023-07-22T14:12:41;97486.50;;;26.68;29.13
16030;BME280;34770;49.272;11.070;2023-07-22T14:15:07;97481.56;;;27.26;28.11
16030;BME280;34770;49.272;11.070;2023-07-22T14:17:32;97471.03;;;27.56;28.13
16030;BME280;34770;49.272;11.070;2023-07-22T14:19:58;97496.59;;;28.37;27.41
16030;BME280;34770;49.272;11.070;2023-07-22T14:22:23;97474.38;;;28.25;27.49
16030;BME280;34770;49.272;11.070;2023-07-22T14:24:49;97486.00;;;28.39;27.41
16030;BME280;34770;49.272;11.070;2023-07-22T14:27:14;97462.16;;;27.15;28.34
16030;BME280;34770;49.272;11.070;2023-07-22T14:29:39;97482.06;;;27.68;27.86
16030;BME280;34770;49.272;11.070;2023-07-22T14:32:05;97478.72;;;27.83;27.52
16030;BME280;34770;49.272;11.070;2023-07-22T14:34:30;97487.75;;;27.00;28.98
16030;BME280;34770;49.272;11.070;2023-07-22T14:36:56;97497.75;;;26.61;29.97
16030;BME280;34770;49.272;11.070;2023-07-22T14:39:21;97474.34;;;26.34;29.62
16030;BME280;34770;49.272;11.070;2023-07-22T14:41:46;97464.84;;;27.10;28.47
16030;BME280;34770;49.272;11.070;2023-07-22T14:44:12;97470.69;;;28.19;29.20
16030;BME280;34770;49.272;11.070;2023-07-22T14:46:37;97433.81;;;27.18;28.12
16030;BME280;34770;49.272;11.070;2023-07-22T14:49:04;97489.50;;;27.79;28.00
16030;BME280;34770;49.272;11.070;2023-07-22T14:51:29;97455.78;;;27.31;28.10
16030;BME280;34770;49.272;11.070;2023-07-22T14:53:55;97439.97;;;27.98;27.16
16030;BME280;34770;49.272;11.070;2023-07-22T14:56:20;97480.53;;;28.27;26.72
16030;BME280;34770;49.272;11.070;2023-07-22T14:58:45;97479.47;;;28.50;26.73
16030;BME280;34770;49.272;11.070;2023-07-22T15:01:11;97471.28;;;27.55;27.90
16030;BME280;34770;49.272;11.070;2023-07-22T15:03:37;97456.97;;;27.35;28.15
16030;BME280;34770;49.272;11.070;2023-07-22T15:06:03;97458.22;;;28.05;27.00
16030;BME280;34770;49.272;11.070;2023-07-22T15:08:28;97439.78;;;28.04;26.42
16030;BME280;34770;49.272;11.070;2023-07-22T15:10:54;97456.84;;;27.41;27.61
16030;BME280;34770;49.272;11.070;2023-07-22T15:13:19;97451.47;;;26.95;28.51
16030;BME280;34770;49.272;11.070;2023-07-22T15:15:45;97463.50;;;27.74;27.75
16030;BME280;34770;49.272;11.070;2023-07-22T15:18:10;97466.53;;;28.22;27.24
16030;BME280;34770;49.272;11.070;2023-07-22T15:20:36;97449.03;;;28.43;26.40
16030;BME280;34770;49.272;11.070;2023-07-22T15:23:01;97474.06;;;28.60;26.53
16030;BME280;34770;49.272;11.070;2023-07-22T15:25:26;97468.00;;;29.11;25.96
16030;BME280;34770;49.272;11.070;2023-07-22T15:27:52;97457.66;;;28.63;26.61